Nearby METAR Reports

 

KHCR - Heber/Russ Mcdon, Utah, USA
Distance from station: SSW 18mi, 29km
Updated: Sun, 01-Aug-2021 5:35pm MDT
Clear
Clear
 Wind from ENE
Wind: ENE 8 mph , 13 km/h
Temperature: 81°F , 27°C
Dew Point: 52°F , 11°C
Humidity: 37%
Barometer: 30.27 inHg , 1025.1 hPa
Clouds: Clear
Visibility: 10 miles , 16 km
2021/08/01 23:35 KHCR 012335Z AUTO 07007KT 040V100 10SM CLR 27/11 A3027 RMK AO2
KSLC - Salt Lake City, Utah, USA
Distance from station: W 35mi, 57km
Updated: Sun, 01-Aug-2021 4:54pm MDT
Mostly cloudy
Mostly cloudy
 Wind from N
Wind: N 8 mph , 13 km/h
Temperature: 90°F , 32°C
Dew Point: 54°F , 12°C
Humidity: 29%
Barometer: 30.16 inHg , 1021.3 hPa
Clouds: Mostly cloudy
Visibility: 10 miles , 16 km
Cloud details: Few Clouds 7500 ft
Partly cloudy 12000 ft
Mostly cloudy 20000 ft
Mostly cloudy 25000 ft
2021/08/01 22:54 KSLC 012254Z 36007KT 330V040 10SM FEW075 SCT120 BKN200 BKN250 32/12 A3016 RMK AO2 LTG DSNT SE SLP150 VIRGA CB DSNT ALQDS T03220122
 
KU42 - Salt Lake Muni, Utah, USA
Distance from station: WSW 37mi, 59km
Updated: Sun, 01-Aug-2021 5:35pm MDT
Clear
Clear
 Wind from NW
Wind: NW 8 mph , 13 km/h
Temperature: 82°F , 28°C
Heat Index: 83°F , 28°C
Dew Point: 63°F , 17°C
Humidity: 51%
Barometer: 30.20 inHg , 1022.7 hPa
Clouds: Clear
Visibility: 10 miles , 16 km
2021/08/01 23:35 KU42 012335Z AUTO 32007KT 10SM CLR 28/17 A3020 RMK AO1 T02820165
KEVW - Evanston, Wyoming, USA
Distance from station: NNE 40mi, 64km
Updated: Sun, 01-Aug-2021 4:53pm MDT
Overcast
Overcast
 Wind from SSE
Wind: SSE 8 mph , 13 km/h
Temperature: 66°F , 19°C
Dew Point: 52°F , 11°C
Humidity: 60%
Barometer: 30.42 inHg , 1030.1 hPa
Clouds: Overcast
Visibility: 10 miles , 16 km
Cloud details: Mostly cloudy 8500 ft
Overcast 10000 ft
2021/08/01 22:53 KEVW 012253Z AUTO 15007KT 10SM BKN085 OVC100 19/11 A3042 RMK AO2 LTG DSNT N AND W SLP218 T01890111
 
KPVU - Provo Muni, Utah, USA
Distance from station: SSW 41mi, 67km
Updated: Sun, 01-Aug-2021 4:56pm MDT
Clear
Clear
 Wind from SE
Wind: SE 8 mph , 13 km/h
Temperature: 86°F , 30°C
Dew Point: 55°F , 13°C
Humidity: 35%
Barometer: 30.20 inHg , 1022.7 hPa
Clouds: Clear
Visibility: 10 miles , 16 km
2021/08/01 22:56 KPVU 012256Z 14007KT 10SM CLR 30/13 A3020 RMK AO2 LTG DSNT N SLP166 T03000128
KHIF - Hill Afb/Ogden, Utah, USA
Distance from station: NW 45mi, 72km
Updated: Sun, 01-Aug-2021 4:58pm MDT
Mostly cloudy
Mostly cloudy
 Wind from W
Wind: W 5 mph , 7 km/h
Temperature: 86°F , 30°C
Dew Point: 55°F , 13°C
Humidity: 35%
Barometer: 30.20 inHg , 1022.7 hPa
Clouds: Mostly cloudy
Visibility: 10 miles , 16 km
Cloud details: Mostly cloudy 14000 ft
2021/08/01 22:58 KHIF 012258Z AUTO 28004KT 10SM BKN140 30/13 A3020 RMK AO2 LTG DSNT NE SLP164 T03020126
 
KOGD - Ogden, Utah, USA
Distance from station: NW 50mi, 81km
Updated: Sun, 01-Aug-2021 5:35pm MDT
Clear
Clear
 Wind from NE
Wind: NE 16 mph , 26 km/h
Temperature: 88°F , 31°C
Dew Point: 55°F , 13°C
Humidity: 33%
Barometer: 30.18 inHg , 1022 hPa
Clouds: Clear
Visibility: 10 miles , 16 km
2021/08/01 23:35 KOGD 012335Z 05014KT 10SM CLR 31/13 A3018 RMK AO2 WSHFT 2315 LTG DSNT N AND NE T03110128 $